ORBI/SDA METAR and TAF weather

Enter ICAO airport designator
Station Type Date Time Source
ORBI METAR 2021/10/24 21:00 UTC NOAA

ORBI 242100Z 27005KT CAVOK 18/02 Q1014 NOSIG


Station Type Date Time Source
ORBI Decoded METAR 2021/10/24 21:00 UTC NOAA

Station name not available
Oct 24, 2021 - 05:00 PM EDT / 2021.10.24 2100 UTC
Wind: from the W (270 degrees) at 6 MPH (5 KT):0
Visibility: greater than 7 mile(s):0
Temperature: 64 F (18 C)
Dew Point: 35 F (2 C)
Relative Humidity: 34%
Pressure (altimeter): 29.94 in. Hg (1014 hPa)
ob: ORBI 242100Z 27005KT CAVOK 18/02 Q1014 NOSIG
cycle: 21

Station Type Date Time Source
ORBI TAF 2021/10/24 18:49 UTC NOAA

TAF ORBI 241600Z 2418/2518 29005KT 8000 NSC

Example: see airport list